sensor_id;sensor_type;location;lat;lon;timestamp;temperature;humidity
3752;DHT22;50827;47.014;7.652;2024-01-15T00:00:13;4.20;99.90
3752;DHT22;50827;47.014;7.652;2024-01-15T00:02:40;4.20;99.90
3752;DHT22;50827;47.014;7.652;2024-01-15T00:05:07;4.20;99.90
3752;DHT22;50827;47.014;7.652;2024-01-15T00:07:35;4.20;99.90
3752;DHT22;50827;47.014;7.652;2024-01-15T00:10:02;4.20;99.90
3752;DHT22;50827;47.014;7.652;2024-01-15T00:12:29;4.20;99.90
3752;DHT22;50827;47.014;7.652;2024-01-15T00:14:55;4.10;99.90
3752;DHT22;50827;47.014;7.652;2024-01-15T00:17:22;4.10;99.90
3752;DHT22;50827;47.014;7.652;2024-01-15T00:19:49;4.10;99.90
3752;DHT22;50827;47.014;7.652;2024-01-15T00:22:16;4.10;99.90
3752;DHT22;50827;47.014;7.652;2024-01-15T00:24:42;4.10;99.90
3752;DHT22;50827;47.014;7.652;2024-01-15T00:27:09;4.00;99.90
3752;DHT22;50827;47.014;7.652;2024-01-15T00:29:36;4.00;99.90
3752;DHT22;50827;47.014;7.652;2024-01-15T00:32:02;4.00;99.90
3752;DHT22;50827;47.014;7.652;2024-01-15T00:34:29;3.90;99.90
3752;DHT22;50827;47.014;7.652;2024-01-15T00:36:56;3.90;99.90
3752;DHT22;50827;47.014;7.652;2024-01-15T00:39:23;4.00;99.90
3752;DHT22;50827;47.014;7.652;2024-01-15T00:41:50;4.00;99.90
3752;DHT22;50827;47.014;7.652;2024-01-15T00:44:16;4.10;99.90
3752;DHT22;50827;47.014;7.652;2024-01-15T00:46:44;4.10;99.90
3752;DHT22;50827;47.014;7.652;2024-01-15T00:49:13;4.10;99.90
3752;DHT22;50827;47.014;7.652;2024-01-15T00:51:40;4.10;99.90
3752;DHT22;50827;47.014;7.652;2024-01-15T00:54:07;4.10;99.90
3752;DHT22;50827;47.014;7.652;2024-01-15T00:56:34;4.10;99.90
3752;DHT22;50827;47.014;7.652;2024-01-15T00:59:01;4.10;99.90
3752;DHT22;50827;47.014;7.652;2024-01-15T01:01:28;4.10;99.90
3752;DHT22;50827;47.014;7.652;2024-01-15T01:03:55;4.10;99.90
3752;DHT22;50827;47.014;7.652;2024-01-15T01:06:21;4.10;99.90
3752;DHT22;50827;47.014;7.652;2024-01-15T01:08:48;4.20;99.90
3752;DHT22;50827;47.014;7.652;2024-01-15T01:11:16;4.20;99.90
3752;DHT22;50827;47.014;7.652;2024-01-15T01:13:42;4.20;99.90
3752;DHT22;50827;47.014;7.652;2024-01-15T01:16:09;4.20;99.90
3752;DHT22;50827;47.014;7.652;2024-01-15T01:18:36;4.20;99.90
3752;DHT22;50827;47.014;7.652;2024-01-15T01:21:03;4.20;99.90
3752;DHT22;50827;47.014;7.652;2024-01-15T01:23:30;4.20;99.90
3752;DHT22;50827;47.014;7.652;2024-01-15T01:25:57;4.20;99.90
3752;DHT22;50827;47.014;7.652;2024-01-15T01:28:23;4.20;99.90
3752;DHT22;50827;47.014;7.652;2024-01-15T01:30:50;4.20;99.90
3752;DHT22;50827;47.014;7.652;2024-01-15T01:33:17;4.20;99.90
3752;DHT22;50827;47.014;7.652;2024-01-15T01:35:44;4.20;99.90
3752;DHT22;50827;47.014;7.652;2024-01-15T01:38:12;4.10;99.90
3752;DHT22;50827;47.014;7.652;2024-01-15T01:40:38;4.30;99.90
3752;DHT22;50827;47.014;7.652;2024-01-15T01:43:05;4.30;99.90
3752;DHT22;50827;47.014;7.652;2024-01-15T01:45:32;4.30;99.90
3752;DHT22;50827;47.014;7.652;2024-01-15T01:48:00;4.30;99.90
3752;DHT22;50827;47.014;7.652;2024-01-15T01:50:31;4.30;99.90
3752;DHT22;50827;47.014;7.652;2024-01-15T01:52:59;4.30;99.90
3752;DHT22;50827;47.014;7.652;2024-01-15T01:55:27;4.30;99.90
3752;DHT22;50827;47.014;7.652;2024-01-15T01:57:55;4.30;99.90
3752;DHT22;50827;47.014;7.652;2024-01-15T02:00:22;4.30;99.90
3752;DHT22;50827;47.014;7.652;2024-01-15T02:02:50;4.30;99.90
3752;DHT22;50827;47.014;7.652;2024-01-15T02:05:18;4.30;99.90
3752;DHT22;50827;47.014;7.652;2024-01-15T02:07:46;4.20;99.90
3752;DHT22;50827;47.014;7.652;2024-01-15T02:10:13;4.30;99.90
3752;DHT22;50827;47.014;7.652;2024-01-15T02:12:40;4.20;99.90
3752;DHT22;50827;47.014;7.652;2024-01-15T02:15:09;4.20;99.90
3752;DHT22;50827;47.014;7.652;2024-01-15T02:18:04;4.20;99.90
3752;DHT22;50827;47.014;7.652;2024-01-15T02:20:32;4.20;99.90
3752;DHT22;50827;47.014;7.652;2024-01-15T02:23:15;4.10;99.90
3752;DHT22;50827;47.014;7.652;2024-01-15T02:25:45;4.10;99.90
3752;DHT22;50827;47.014;7.652;2024-01-15T02:28:14;4.10;99.90
3752;DHT22;50827;47.014;7.652;2024-01-15T02:30:41;4.10;99.90
3752;DHT22;50827;47.014;7.652;2024-01-15T02:33:10;4.00;99.90
3752;DHT22;50827;47.014;7.652;2024-01-15T02:35:38;4.10;99.90
3752;DHT22;50827;47.014;7.652;2024-01-15T02:38:05;4.10;99.90
3752;DHT22;50827;47.014;7.652;2024-01-15T02:40:32;4.10;99.90
3752;DHT22;50827;47.014;7.652;2024-01-15T02:42:59;4.10;99.90
3752;DHT22;50827;47.014;7.652;2024-01-15T02:45:26;4.10;99.90
3752;DHT22;50827;47.014;7.652;2024-01-15T02:47:53;4.10;99.90
3752;DHT22;50827;47.014;7.652;2024-01-15T02:50:20;4.20;99.90
3752;DHT22;50827;47.014;7.652;2024-01-15T02:52:46;4.20;99.90
3752;DHT22;50827;47.014;7.652;2024-01-15T02:55:13;4.10;99.90
3752;DHT22;50827;47.014;7.652;2024-01-15T02:57:40;4.10;99.90
3752;DHT22;50827;47.014;7.652;2024-01-15T03:00:07;4.10;99.90
3752;DHT22;50827;47.014;7.652;2024-01-15T03:02:37;4.00;99.90
3752;DHT22;50827;47.014;7.652;2024-01-15T03:05:13;4.00;99.90
3752;DHT22;50827;47.014;7.652;2024-01-15T03:07:40;4.00;99.90
3752;DHT22;50827;47.014;7.652;2024-01-15T03:10:07;4.10;99.90
3752;DHT22;50827;47.014;7.652;2024-01-15T03:12:34;4.10;99.90
3752;DHT22;50827;47.014;7.652;2024-01-15T03:15:01;4.10;99.90
3752;DHT22;50827;47.014;7.652;2024-01-15T03:17:27;4.10;99.90
3752;DHT22;50827;47.014;7.652;2024-01-15T03:19:54;4.10;99.90
3752;DHT22;50827;47.014;7.652;2024-01-15T03:22:21;4.20;99.90
3752;DHT22;50827;47.014;7.652;2024-01-15T03:24:48;4.20;99.90
3752;DHT22;50827;47.014;7.652;2024-01-15T03:27:15;4.20;99.90
3752;DHT22;50827;47.014;7.652;2024-01-15T03:29:42;4.20;99.90
3752;DHT22;50827;47.014;7.652;2024-01-15T03:32:08;4.20;99.90
3752;DHT22;50827;47.014;7.652;2024-01-15T03:34:35;4.20;99.90
3752;DHT22;50827;47.014;7.652;2024-01-15T03:37:02;4.20;99.90
3752;DHT22;50827;47.014;7.652;2024-01-15T03:39:29;4.20;99.90
3752;DHT22;50827;47.014;7.652;2024-01-15T03:41:56;4.20;99.90
3752;DHT22;50827;47.014;7.652;2024-01-15T03:44:22;4.20;99.90
3752;DHT22;50827;47.014;7.652;2024-01-15T03:46:49;4.20;99.90
3752;DHT22;50827;47.014;7.652;2024-01-15T03:49:16;4.20;99.90
3752;DHT22;50827;47.014;7.652;2024-01-15T03:51:43;4.20;99.90
3752;DHT22;50827;47.014;7.652;2024-01-15T03:54:10;4.20;99.90
3752;DHT22;50827;47.014;7.652;2024-01-15T03:56:36;4.20;99.90
3752;DHT22;50827;47.014;7.652;2024-01-15T03:59:03;4.20;99.90
3752;DHT22;50827;47.014;7.652;2024-01-15T04:01:30;4.20;99.90
3752;DHT22;50827;47.014;7.652;2024-01-15T04:03:56;4.20;99.90
3752;DHT22;50827;47.014;7.652;2024-01-15T04:06:23;4.20;99.90
3752;DHT22;50827;47.014;7.652;2024-01-15T04:08:50;4.20;99.90
3752;DHT22;50827;47.014;7.652;2024-01-15T04:11:17;4.10;99.90
3752;DHT22;50827;47.014;7.652;2024-01-15T04:13:44;4.20;99.90
3752;DHT22;50827;47.014;7.652;2024-01-15T04:16:11;4.20;99.90
3752;DHT22;50827;47.014;7.652;2024-01-15T04:18:37;4.10;99.90
3752;DHT22;50827;47.014;7.652;2024-01-15T04:21:05;4.10;99.90
3752;DHT22;50827;47.014;7.652;2024-01-15T04:23:33;4.10;99.90
3752;DHT22;50827;47.014;7.652;2024-01-15T04:25:59;4.10;99.90
3752;DHT22;50827;47.014;7.652;2024-01-15T04:28:26;4.10;99.90
3752;DHT22;50827;47.014;7.652;2024-01-15T04:30:53;4.10;99.90
3752;DHT22;50827;47.014;7.652;2024-01-15T04:33:19;4.20;99.90
3752;DHT22;50827;47.014;7.652;2024-01-15T04:35:46;4.10;99.90
3752;DHT22;50827;47.014;7.652;2024-01-15T04:38:13;4.10;99.90
3752;DHT22;50827;47.014;7.652;2024-01-15T04:40:40;4.10;99.90
3752;DHT22;50827;47.014;7.652;2024-01-15T04:43:07;4.10;99.90
3752;DHT22;50827;47.014;7.652;2024-01-15T04:45:34;4.10;99.90
3752;DHT22;50827;47.014;7.652;2024-01-15T04:48:01;4.10;99.90
3752;DHT22;50827;47.014;7.652;2024-01-15T04:50:28;4.10;99.90
3752;DHT22;50827;47.014;7.652;2024-01-15T04:52:55;4.20;99.90
3752;DHT22;50827;47.014;7.652;2024-01-15T04:55:22;4.20;99.90
3752;DHT22;50827;47.014;7.652;2024-01-15T04:57:48;4.20;99.90
3752;DHT22;50827;47.014;7.652;2024-01-15T05:00:15;4.20;99.90
3752;DHT22;50827;47.014;7.652;2024-01-15T05:02:42;4.20;99.90
3752;DHT22;50827;47.014;7.652;2024-01-15T05:05:09;4.20;99.90
3752;DHT22;50827;47.014;7.652;2024-01-15T05:07:36;4.20;99.90
3752;DHT22;50827;47.014;7.652;2024-01-15T05:10:03;4.20;99.90
3752;DHT22;50827;47.014;7.652;2024-01-15T05:12:30;4.20;99.90
3752;DHT22;50827;47.014;7.652;2024-01-15T05:14:57;4.30;99.90
3752;DHT22;50827;47.014;7.652;2024-01-15T05:17:23;4.20;99.90
3752;DHT22;50827;47.014;7.652;2024-01-15T05:19:50;4.20;99.90
3752;DHT22;50827;47.014;7.652;2024-01-15T05:22:17;4.30;99.90
3752;DHT22;50827;47.014;7.652;2024-01-15T05:24:44;4.30;99.90
3752;DHT22;50827;47.014;7.652;2024-01-15T05:27:11;4.30;99.90
3752;DHT22;50827;47.014;7.652;2024-01-15T05:29:37;4.30;99.90
3752;DHT22;50827;47.014;7.652;2024-01-15T05:32:04;4.30;99.90
3752;DHT22;50827;47.014;7.652;2024-01-15T05:34:31;4.30;99.90
3752;DHT22;50827;47.014;7.652;2024-01-15T05:36:58;4.30;99.90
3752;DHT22;50827;47.014;7.652;2024-01-15T05:39:24;4.30;99.90
3752;DHT22;50827;47.014;7.652;2024-01-15T05:41:51;4.30;99.90
3752;DHT22;50827;47.014;7.652;2024-01-15T05:44:18;4.30;99.90
3752;DHT22;50827;47.014;7.652;2024-01-15T05:46:45;4.30;99.90
3752;DHT22;50827;47.014;7.652;2024-01-15T05:49:11;4.30;99.90
3752;DHT22;50827;47.014;7.652;2024-01-15T05:51:38;4.30;99.90
3752;DHT22;50827;47.014;7.652;2024-01-15T05:54:05;4.30;99.90
3752;DHT22;50827;47.014;7.652;2024-01-15T05:56:32;4.40;99.90
3752;DHT22;50827;47.014;7.652;2024-01-15T05:58:59;4.40;99.90
3752;DHT22;50827;47.014;7.652;2024-01-15T06:01:26;4.40;99.90
3752;DHT22;50827;47.014;7.652;2024-01-15T06:03:53;4.40;99.90
3752;DHT22;50827;47.014;7.652;2024-01-15T06:06:19;4.40;99.90
3752;DHT22;50827;47.014;7.652;2024-01-15T06:08:46;4.40;99.90
3752;DHT22;50827;47.014;7.652;2024-01-15T06:11:13;4.40;99.90
3752;DHT22;50827;47.014;7.652;2024-01-15T06:13:40;4.40;99.90
3752;DHT22;50827;47.014;7.652;2024-01-15T06:16:15;4.40;99.90
3752;DHT22;50827;47.014;7.652;2024-01-15T06:18:51;4.50;99.90
3752;DHT22;50827;47.014;7.652;2024-01-15T06:21:18;4.40;99.90
3752;DHT22;50827;47.014;7.652;2024-01-15T06:23:45;4.40;99.90
3752;DHT22;50827;47.014;7.652;2024-01-15T06:26:12;4.50;99.90
3752;DHT22;50827;47.014;7.652;2024-01-15T06:28:39;4.50;99.90
3752;DHT22;50827;47.014;7.652;2024-01-15T06:31:06;4.40;99.90
3752;DHT22;50827;47.014;7.652;2024-01-15T06:33:33;4.40;99.90
3752;DHT22;50827;47.014;7.652;2024-01-15T06:36:00;4.40;99.90
3752;DHT22;50827;47.014;7.652;2024-01-15T06:38:27;4.40;99.90
3752;DHT22;50827;47.014;7.652;2024-01-15T06:40:54;4.40;99.90
3752;DHT22;50827;47.014;7.652;2024-01-15T06:43:21;4.40;99.90
3752;DHT22;50827;47.014;7.652;2024-01-15T06:45:47;4.50;99.90
3752;DHT22;50827;47.014;7.652;2024-01-15T06:48:15;4.50;99.90
3752;DHT22;50827;47.014;7.652;2024-01-15T06:50:43;4.50;99.90
3752;DHT22;50827;47.014;7.652;2024-01-15T06:53:10;4.50;99.90
3752;DHT22;50827;47.014;7.652;2024-01-15T06:55:38;4.50;99.90
3752;DHT22;50827;47.014;7.652;2024-01-15T06:58:05;4.60;99.90
3752;DHT22;50827;47.014;7.652;2024-01-15T07:00:32;4.50;99.90
3752;DHT22;50827;47.014;7.652;2024-01-15T07:02:59;4.50;99.90
3752;DHT22;50827;47.014;7.652;2024-01-15T07:05:26;4.50;99.90
3752;DHT22;50827;47.014;7.652;2024-01-15T07:07:53;4.50;99.90
3752;DHT22;50827;47.014;7.652;2024-01-15T07:10:19;4.50;99.90
3752;DHT22;50827;47.014;7.652;2024-01-15T07:12:46;4.50;99.90
3752;DHT22;50827;47.014;7.652;2024-01-15T07:15:13;4.50;99.90
3752;DHT22;50827;47.014;7.652;2024-01-15T07:17:41;4.50;99.90
3752;DHT22;50827;47.014;7.652;2024-01-15T07:20:08;4.50;99.90
3752;DHT22;50827;47.014;7.652;2024-01-15T07:22:36;4.50;99.90
3752;DHT22;50827;47.014;7.652;2024-01-15T07:25:03;4.50;99.90
3752;DHT22;50827;47.014;7.652;2024-01-15T07:27:32;4.50;99.90
3752;DHT22;50827;47.014;7.652;2024-01-15T07:29:59;4.50;99.90
3752;DHT22;50827;47.014;7.652;2024-01-15T07:32:28;4.50;99.90
3752;DHT22;50827;47.014;7.652;2024-01-15T07:34:55;4.50;99.90
3752;DHT22;50827;47.014;7.652;2024-01-15T07:37:22;4.50;99.90
3752;DHT22;50827;47.014;7.652;2024-01-15T07:39:49;4.40;99.90
3752;DHT22;50827;47.014;7.652;2024-01-15T07:42:16;4.40;99.90
3752;DHT22;50827;47.014;7.652;2024-01-15T07:44:43;4.40;99.90
3752;DHT22;50827;47.014;7.652;2024-01-15T07:47:10;4.40;99.90
3752;DHT22;50827;47.014;7.652;2024-01-15T07:49:36;4.30;99.90
3752;DHT22;50827;47.014;7.652;2024-01-15T07:52:03;4.30;99.90
3752;DHT22;50827;47.014;7.652;2024-01-15T07:54:31;4.40;99.90
3752;DHT22;50827;47.014;7.652;2024-01-15T07:57:02;4.40;99.90
3752;DHT22;50827;47.014;7.652;2024-01-15T07:59:32;4.40;99.90
3752;DHT22;50827;47.014;7.652;2024-01-15T08:01:59;4.40;99.90
3752;DHT22;50827;47.014;7.652;2024-01-15T08:04:26;4.40;99.90
3752;DHT22;50827;47.014;7.652;2024-01-15T08:06:54;4.40;99.90
3752;DHT22;50827;47.014;7.652;2024-01-15T08:09:21;4.50;99.90
3752;DHT22;50827;47.014;7.652;2024-01-15T08:11:48;4.40;99.90
3752;DHT22;50827;47.014;7.652;2024-01-15T08:14:15;4.50;99.90
3752;DHT22;50827;47.014;7.652;2024-01-15T08:16:42;4.40;99.90
3752;DHT22;50827;47.014;7.652;2024-01-15T08:19:10;4.50;99.90
3752;DHT22;50827;47.014;7.652;2024-01-15T08:21:37;4.50;99.90
3752;DHT22;50827;47.014;7.652;2024-01-15T08:24:04;4.50;99.90
3752;DHT22;50827;47.014;7.652;2024-01-15T08:26:31;4.60;99.90
3752;DHT22;50827;47.014;7.652;2024-01-15T08:28:59;4.50;99.90
3752;DHT22;50827;47.014;7.652;2024-01-15T08:31:26;4.60;99.90
3752;DHT22;50827;47.014;7.652;2024-01-15T08:33:53;4.60;99.90
3752;DHT22;50827;47.014;7.652;2024-01-15T08:36:21;4.60;99.90
3752;DHT22;50827;47.014;7.652;2024-01-15T08:38:48;4.60;99.90
3752;DHT22;50827;47.014;7.652;2024-01-15T08:41:15;4.60;99.90
3752;DHT22;50827;47.014;7.652;2024-01-15T08:43:41;4.60;99.90
3752;DHT22;50827;47.014;7.652;2024-01-15T08:46:08;4.70;99.90
3752;DHT22;50827;47.014;7.652;2024-01-15T08:48:35;4.60;99.90
3752;DHT22;50827;47.014;7.652;2024-01-15T08:51:02;4.60;99.90
3752;DHT22;50827;47.014;7.652;2024-01-15T08:53:29;4.60;99.90
3752;DHT22;50827;47.014;7.652;2024-01-15T08:55:56;4.70;99.90
3752;DHT22;50827;47.014;7.652;2024-01-15T08:58:23;4.70;99.90
3752;DHT22;50827;47.014;7.652;2024-01-15T09:00:51;4.70;99.90
3752;DHT22;50827;47.014;7.652;2024-01-15T09:03:18;4.80;99.90
3752;DHT22;50827;47.014;7.652;2024-01-15T09:05:46;4.80;99.90
3752;DHT22;50827;47.014;7.652;2024-01-15T09:08:13;4.80;99.90
3752;DHT22;50827;47.014;7.652;2024-01-15T09:10:39;4.80;99.90
3752;DHT22;50827;47.014;7.652;2024-01-15T09:13:07;4.80;99.90
3752;DHT22;50827;47.014;7.652;2024-01-15T09:15:34;4.80;99.90
3752;DHT22;50827;47.014;7.652;2024-01-15T09:18:01;4.80;99.90
3752;DHT22;50827;47.014;7.652;2024-01-15T09:20:33;4.80;99.90
3752;DHT22;50827;47.014;7.652;2024-01-15T09:23:00;4.90;99.90
3752;DHT22;50827;47.014;7.652;2024-01-15T09:25:26;4.90;99.90
3752;DHT22;50827;47.014;7.652;2024-01-15T09:27:53;4.90;99.90
3752;DHT22;50827;47.014;7.652;2024-01-15T09:30:20;4.90;99.90
3752;DHT22;50827;47.014;7.652;2024-01-15T09:32:47;4.90;99.90
3752;DHT22;50827;47.014;7.652;2024-01-15T09:35:14;4.90;99.90
3752;DHT22;50827;47.014;7.652;2024-01-15T09:37:41;4.90;99.90
3752;DHT22;50827;47.014;7.652;2024-01-15T09:40:14;4.90;99.90
3752;DHT22;50827;47.014;7.652;2024-01-15T09:42:43;4.90;99.90
3752;DHT22;50827;47.014;7.652;2024-01-15T09:45:10;4.90;99.90
3752;DHT22;50827;47.014;7.652;2024-01-15T09:47:37;4.90;99.90
3752;DHT22;50827;47.014;7.652;2024-01-15T09:50:10;4.90;99.90
3752;DHT22;50827;47.014;7.652;2024-01-15T09:52:38;4.90;99.90
3752;DHT22;50827;47.014;7.652;2024-01-15T09:55:07;4.90;99.90
3752;DHT22;50827;47.014;7.652;2024-01-15T09:57:36;4.90;99.90
3752;DHT22;50827;47.014;7.652;2024-01-15T10:00:04;4.90;99.90
3752;DHT22;50827;47.014;7.652;2024-01-15T10:02:33;4.90;99.90
3752;DHT22;50827;47.014;7.652;2024-01-15T10:05:00;5.00;99.90
3752;DHT22;50827;47.014;7.652;2024-01-15T10:07:29;5.00;99.90
3752;DHT22;50827;47.014;7.652;2024-01-15T10:09:56;5.00;99.90
3752;DHT22;50827;47.014;7.652;2024-01-15T10:12:23;5.10;99.90
3752;DHT22;50827;47.014;7.652;2024-01-15T10:14:50;5.10;99.90
3752;DHT22;50827;47.014;7.652;2024-01-15T10:17:17;5.10;99.90
3752;DHT22;50827;47.014;7.652;2024-01-15T10:19:45;5.10;99.90
3752;DHT22;50827;47.014;7.652;2024-01-15T10:22:16;5.10;99.90
3752;DHT22;50827;47.014;7.652;2024-01-15T10:24:44;5.10;99.90
3752;DHT22;50827;47.014;7.652;2024-01-15T10:27:12;5.20;99.90
3752;DHT22;50827;47.014;7.652;2024-01-15T10:29:41;5.10;99.90
3752;DHT22;50827;47.014;7.652;2024-01-15T10:32:08;5.10;99.90
3752;DHT22;50827;47.014;7.652;2024-01-15T10:34:39;5.20;99.90
3752;DHT22;50827;47.014;7.652;2024-01-15T10:37:08;5.20;99.90
3752;DHT22;50827;47.014;7.652;2024-01-15T10:39:36;5.20;99.90
3752;DHT22;50827;47.014;7.652;2024-01-15T10:42:03;5.20;99.90
3752;DHT22;50827;47.014;7.652;2024-01-15T10:44:30;5.30;99.90
3752;DHT22;50827;47.014;7.652;2024-01-15T10:46:57;5.20;99.90
3752;DHT22;50827;47.014;7.652;2024-01-15T10:49:24;5.20;99.90
3752;DHT22;50827;47.014;7.652;2024-01-15T10:51:59;5.30;99.90
3752;DHT22;50827;47.014;7.652;2024-01-15T10:54:27;5.30;99.90
3752;DHT22;50827;47.014;7.652;2024-01-15T10:56:56;5.30;99.90
3752;DHT22;50827;47.014;7.652;2024-01-15T10:59:23;5.30;99.90
3752;DHT22;50827;47.014;7.652;2024-01-15T11:01:51;5.30;99.90
3752;DHT22;50827;47.014;7.652;2024-01-15T11:04:22;5.30;99.90
3752;DHT22;50827;47.014;7.652;2024-01-15T11:06:52;5.30;99.90
3752;DHT22;50827;47.014;7.652;2024-01-15T11:09:23;5.40;99.90
3752;DHT22;50827;47.014;7.652;2024-01-15T11:12:07;5.30;99.90
3752;DHT22;50827;47.014;7.652;2024-01-15T11:14:40;5.30;99.90
3752;DHT22;50827;47.014;7.652;2024-01-15T11:17:07;5.30;99.90
3752;DHT22;50827;47.014;7.652;2024-01-15T11:22:04;5.30;99.90
3752;DHT22;50827;47.014;7.652;2024-01-15T11:24:37;5.30;99.90
3752;DHT22;50827;47.014;7.652;2024-01-15T11:27:05;5.40;99.90
3752;DHT22;50827;47.014;7.652;2024-01-15T11:29:34;5.30;99.90
3752;DHT22;50827;47.014;7.652;2024-01-15T11:32:06;5.40;99.90
3752;DHT22;50827;47.014;7.652;2024-01-15T11:34:56;5.30;99.90
3752;DHT22;50827;47.014;7.652;2024-01-15T11:37:27;5.30;99.90
3752;DHT22;50827;47.014;7.652;2024-01-15T11:39:55;5.40;99.90
3752;DHT22;50827;47.014;7.652;2024-01-15T11:42:23;5.40;99.90
3752;DHT22;50827;47.014;7.652;2024-01-15T11:44:50;5.40;99.90
3752;DHT22;50827;47.014;7.652;2024-01-15T11:50:09;5.40;99.90
3752;DHT22;50827;47.014;7.652;2024-01-15T11:52:39;5.40;99.90
3752;DHT22;50827;47.014;7.652;2024-01-15T11:57:50;5.50;99.90
3752;DHT22;50827;47.014;7.652;2024-01-15T12:00:18;5.50;99.90
3752;DHT22;50827;47.014;7.652;2024-01-15T12:02:46;5.50;99.90
3752;DHT22;50827;47.014;7.652;2024-01-15T12:05:15;5.50;99.90
3752;DHT22;50827;47.014;7.652;2024-01-15T12:07:47;5.40;99.90
3752;DHT22;50827;47.014;7.652;2024-01-15T12:10:19;5.50;99.90
3752;DHT22;50827;47.014;7.652;2024-01-15T12:12:59;5.50;99.90
3752;DHT22;50827;47.014;7.652;2024-01-15T12:15:28;5.50;99.90
3752;DHT22;50827;47.014;7.652;2024-01-15T12:17:56;5.50;99.90
3752;DHT22;50827;47.014;7.652;2024-01-15T12:20:25;5.50;99.90
3752;DHT22;50827;47.014;7.652;2024-01-15T12:22:52;5.50;99.90
3752;DHT22;50827;47.014;7.652;2024-01-15T12:25:29;5.60;99.90
3752;DHT22;50827;47.014;7.652;2024-01-15T12:27:57;5.60;99.90
3752;DHT22;50827;47.014;7.652;2024-01-15T12:30:23;5.60;99.90
3752;DHT22;50827;47.014;7.652;2024-01-15T12:32:50;5.60;99.90
3752;DHT22;50827;47.014;7.652;2024-01-15T12:35:17;5.50;99.90
3752;DHT22;50827;47.014;7.652;2024-01-15T12:37:44;5.50;99.90
3752;DHT22;50827;47.014;7.652;2024-01-15T12:40:13;5.50;99.90
3752;DHT22;50827;47.014;7.652;2024-01-15T12:42:41;5.50;99.90
3752;DHT22;50827;47.014;7.652;2024-01-15T12:45:09;5.50;99.90
3752;DHT22;50827;47.014;7.652;2024-01-15T12:47:38;5.40;99.90
3752;DHT22;50827;47.014;7.652;2024-01-15T12:50:09;5.30;99.90
3752;DHT22;50827;47.014;7.652;2024-01-15T12:52:45;5.30;99.90
3752;DHT22;50827;47.014;7.652;2024-01-15T12:55:13;5.30;99.90
3752;DHT22;50827;47.014;7.652;2024-01-15T12:57:41;5.40;99.90
3752;DHT22;50827;47.014;7.652;2024-01-15T13:00:08;5.30;99.90
3752;DHT22;50827;47.014;7.652;2024-01-15T13:02:40;5.30;99.90
3752;DHT22;50827;47.014;7.652;2024-01-15T13:05:09;5.30;99.90
3752;DHT22;50827;47.014;7.652;2024-01-15T13:07:37;5.20;99.90
3752;DHT22;50827;47.014;7.652;2024-01-15T13:10:05;5.20;99.90
3752;DHT22;50827;47.014;7.652;2024-01-15T13:12:33;5.20;99.90
3752;DHT22;50827;47.014;7.652;2024-01-15T13:15:00;5.20;99.90
3752;DHT22;50827;47.014;7.652;2024-01-15T13:17:30;5.20;99.90
3752;DHT22;50827;47.014;7.652;2024-01-15T13:19:56;5.20;99.90
3752;DHT22;50827;47.014;7.652;2024-01-15T13:22:23;5.20;99.90
3752;DHT22;50827;47.014;7.652;2024-01-15T13:24:56;5.20;99.90
3752;DHT22;50827;47.014;7.652;2024-01-15T13:27:25;5.10;99.90
3752;DHT22;50827;47.014;7.652;2024-01-15T13:29:52;5.20;99.90
3752;DHT22;50827;47.014;7.652;2024-01-15T13:32:24;5.30;99.90
3752;DHT22;50827;47.014;7.652;2024-01-15T13:34:52;5.20;99.90
3752;DHT22;50827;47.014;7.652;2024-01-15T13:37:19;5.20;99.90
3752;DHT22;50827;47.014;7.652;2024-01-15T13:39:46;5.20;99.90
3752;DHT22;50827;47.014;7.652;2024-01-15T13:42:13;5.20;99.90
3752;DHT22;50827;47.014;7.652;2024-01-15T13:44:40;5.20;99.90
3752;DHT22;50827;47.014;7.652;2024-01-15T13:47:06;5.20;99.90
3752;DHT22;50827;47.014;7.652;2024-01-15T13:49:33;5.20;99.90
3752;DHT22;50827;47.014;7.652;2024-01-15T13:52:01;5.10;99.90
3752;DHT22;50827;47.014;7.652;2024-01-15T13:54:30;5.10;99.90
3752;DHT22;50827;47.014;7.652;2024-01-15T13:57:14;5.00;99.90
3752;DHT22;50827;47.014;7.652;2024-01-15T13:59:42;5.10;99.90
3752;DHT22;50827;47.014;7.652;2024-01-15T14:02:08;5.10;99.90
3752;DHT22;50827;47.014;7.652;2024-01-15T14:04:37;5.10;99.90
3752;DHT22;50827;47.014;7.652;2024-01-15T14:07:04;5.10;99.90
3752;DHT22;50827;47.014;7.652;2024-01-15T14:09:31;5.10;99.90
3752;DHT22;50827;47.014;7.652;2024-01-15T14:11:58;5.10;99.90
3752;DHT22;50827;47.014;7.652;2024-01-15T14:14:25;5.10;99.90
3752;DHT22;50827;47.014;7.652;2024-01-15T14:16:52;5.00;99.90
3752;DHT22;50827;47.014;7.652;2024-01-15T14:19:19;5.10;99.90
3752;DHT22;50827;47.014;7.652;2024-01-15T14:21:47;5.10;99.90
3752;DHT22;50827;47.014;7.652;2024-01-15T14:24:14;5.10;99.90
3752;DHT22;50827;47.014;7.652;2024-01-15T14:26:42;5.00;99.90
3752;DHT22;50827;47.014;7.652;2024-01-15T14:29:09;5.00;99.90
3752;DHT22;50827;47.014;7.652;2024-01-15T14:31:36;5.00;99.90
3752;DHT22;50827;47.014;7.652;2024-01-15T14:34:03;5.00;99.90
3752;DHT22;50827;47.014;7.652;2024-01-15T14:36:30;5.00;99.90
3752;DHT22;50827;47.014;7.652;2024-01-15T14:38:57;5.00;99.90
3752;DHT22;50827;47.014;7.652;2024-01-15T14:41:24;5.00;99.90
3752;DHT22;50827;47.014;7.652;2024-01-15T14:43:50;5.00;99.90
3752;DHT22;50827;47.014;7.652;2024-01-15T14:46:17;4.90;99.90
3752;DHT22;50827;47.014;7.652;2024-01-15T14:48:44;4.90;99.90
3752;DHT22;50827;47.014;7.652;2024-01-15T14:51:11;4.90;99.90
3752;DHT22;50827;47.014;7.652;2024-01-15T14:53:38;5.00;99.90
3752;DHT22;50827;47.014;7.652;2024-01-15T14:56:05;4.90;99.90
3752;DHT22;50827;47.014;7.652;2024-01-15T14:58:32;4.90;99.90
3752;DHT22;50827;47.014;7.652;2024-01-15T15:00:59;4.90;99.90
3752;DHT22;50827;47.014;7.652;2024-01-15T15:03:26;4.90;99.90
3752;DHT22;50827;47.014;7.652;2024-01-15T15:05:53;4.80;99.90
3752;DHT22;50827;47.014;7.652;2024-01-15T15:08:19;4.80;99.90
3752;DHT22;50827;47.014;7.652;2024-01-15T15:10:46;4.80;99.90
3752;DHT22;50827;47.014;7.652;2024-01-15T15:13:13;4.80;99.90
3752;DHT22;50827;47.014;7.652;2024-01-15T15:15:40;4.70;99.90
3752;DHT22;50827;47.014;7.652;2024-01-15T15:18:06;4.80;99.90
3752;DHT22;50827;47.014;7.652;2024-01-15T15:20:33;4.70;99.90
3752;DHT22;50827;47.014;7.652;2024-01-15T15:23:00;4.70;99.90
3752;DHT22;50827;47.014;7.652;2024-01-15T15:25:27;4.70;99.90
3752;DHT22;50827;47.014;7.652;2024-01-15T15:27:53;4.70;99.90
3752;DHT22;50827;47.014;7.652;2024-01-15T15:30:20;4.70;99.90
3752;DHT22;50827;47.014;7.652;2024-01-15T15:32:47;4.70;99.90
3752;DHT22;50827;47.014;7.652;2024-01-15T15:35:14;4.60;99.90
3752;DHT22;50827;47.014;7.652;2024-01-15T15:37:41;4.60;99.90
3752;DHT22;50827;47.014;7.652;2024-01-15T15:40:08;4.60;99.90
3752;DHT22;50827;47.014;7.652;2024-01-15T15:42:37;4.60;99.90
3752;DHT22;50827;47.014;7.652;2024-01-15T15:45:04;4.50;99.90
3752;DHT22;50827;47.014;7.652;2024-01-15T15:47:32;4.50;99.90
3752;DHT22;50827;47.014;7.652;2024-01-15T15:49:59;4.50;99.90
3752;DHT22;50827;47.014;7.652;2024-01-15T15:52:26;4.40;99.90
3752;DHT22;50827;47.014;7.652;2024-01-15T15:54:53;4.50;99.90
3752;DHT22;50827;47.014;7.652;2024-01-15T15:57:20;4.50;99.90
3752;DHT22;50827;47.014;7.652;2024-01-15T15:59:47;4.50;99.90
3752;DHT22;50827;47.014;7.652;2024-01-15T16:02:14;4.60;99.90
3752;DHT22;50827;47.014;7.652;2024-01-15T16:04:41;4.60;99.90
3752;DHT22;50827;47.014;7.652;2024-01-15T16:07:08;4.50;99.90
3752;DHT22;50827;47.014;7.652;2024-01-15T16:09:36;4.40;99.90
3752;DHT22;50827;47.014;7.652;2024-01-15T16:12:03;4.40;99.90